createdAt,value
2023-04-25T00:01:20.056Z,0.80
2023-04-25T00:03:47.877Z,0.70
2023-04-25T00:06:15.951Z,0.60
2023-04-25T00:08:43.509Z,0.60
2023-04-25T00:11:11.283Z,0.70
2023-04-25T00:13:38.868Z,0.53
2023-04-25T00:16:06.782Z,0.80
2023-04-25T00:18:34.430Z,0.63
2023-04-25T00:21:02.112Z,0.60
2023-04-25T00:23:29.711Z,0.60
2023-04-25T00:25:57.230Z,0.60
2023-04-25T00:28:25.033Z,0.60
2023-04-25T00:30:52.569Z,0.60
2023-04-25T00:33:20.173Z,0.40
2023-04-25T00:35:47.780Z,0.60
2023-04-25T00:38:15.317Z,0.60
2023-04-25T00:40:44.872Z,0.50
2023-04-25T00:43:12.500Z,0.47
2023-04-25T00:45:41.306Z,0.70
2023-04-25T00:48:09.037Z,0.50
2023-04-25T00:50:37.922Z,0.40
2023-04-25T00:53:05.913Z,0.53
2023-04-25T00:55:35.795Z,0.53
2023-04-25T00:58:03.563Z,0.40
2023-04-25T01:00:31.424Z,0.50
2023-04-25T01:03:00.089Z,0.60
2023-04-25T01:05:27.820Z,0.50
2023-04-25T01:07:55.918Z,0.60
2023-04-25T01:10:23.577Z,0.60
2023-04-25T01:12:51.249Z,0.53
2023-04-25T01:15:18.917Z,0.60
2023-04-25T01:17:46.556Z,0.67
2023-04-25T01:20:16.212Z,0.80
2023-04-25T01:22:44.605Z,0.70
2023-04-25T01:25:13.636Z,0.73
2023-04-25T01:27:42.111Z,0.93
2023-04-25T01:30:10.679Z,0.90
2023-04-25T01:32:41.323Z,1.00
2023-04-25T01:35:12.268Z,0.90
2023-04-25T01:37:44.687Z,0.87
2023-04-25T01:40:13.671Z,0.90
2023-04-25T01:42:44.723Z,1.00
2023-04-25T01:45:13.086Z,1.07
2023-04-25T01:47:42.909Z,0.97
2023-04-25T01:50:12.271Z,0.90
2023-04-25T01:52:40.162Z,1.03
2023-04-25T01:55:08.335Z,0.90
2023-04-25T01:57:35.937Z,1.07
2023-04-25T02:00:08.027Z,0.97
2023-04-25T02:02:36.045Z,1.00
2023-04-25T02:05:03.893Z,0.97
2023-04-25T02:07:31.408Z,1.00
2023-04-25T02:09:59.000Z,1.10
2023-04-25T02:12:27.716Z,1.07
2023-04-25T02:14:55.665Z,1.27
2023-04-25T02:17:23.381Z,1.10
2023-04-25T02:19:51.539Z,1.30
2023-04-25T02:22:19.048Z,1.33
2023-04-25T02:24:47.680Z,1.43
2023-04-25T02:27:15.233Z,1.30
2023-04-25T02:29:42.779Z,1.47
2023-04-25T02:32:10.417Z,1.50
2023-04-25T02:34:38.658Z,1.40
2023-04-25T02:37:06.184Z,1.63
2023-04-25T02:39:33.725Z,1.40
2023-04-25T02:42:02.222Z,1.30
2023-04-25T02:44:29.892Z,1.50
2023-04-25T02:46:57.485Z,1.60
2023-04-25T02:49:25.099Z,1.57
2023-04-25T02:51:52.656Z,1.50
2023-04-25T02:54:20.145Z,1.80
2023-04-25T02:56:47.869Z,1.60
2023-04-25T02:59:15.384Z,1.70
2023-04-25T03:01:42.916Z,1.60
2023-04-25T03:04:10.550Z,1.60
2023-04-25T03:06:38.150Z,1.83
2023-04-25T03:09:05.831Z,1.90
2023-04-25T03:11:33.406Z,1.90
2023-04-25T03:14:00.994Z,1.90
2023-04-25T03:16:28.790Z,2.00
2023-04-25T03:18:56.494Z,2.10
2023-04-25T03:21:24.508Z,2.20
2023-04-25T03:23:52.348Z,2.20
2023-04-25T03:26:20.092Z,2.10
2023-04-25T03:28:47.646Z,2.23
2023-04-25T03:31:15.155Z,2.40
2023-04-25T03:33:42.848Z,2.40
2023-04-25T03:36:10.910Z,2.40
2023-04-25T03:38:38.674Z,2.60
2023-04-25T03:41:06.176Z,2.60
2023-04-25T03:43:33.761Z,2.73
2023-04-25T03:46:01.887Z,2.90
2023-04-25T03:48:29.644Z,3.10
2023-04-25T03:50:57.242Z,2.97
2023-04-25T03:53:26.504Z,2.80
2023-04-25T03:55:54.048Z,2.97
2023-04-25T03:58:21.606Z,2.63
2023-04-25T04:00:49.103Z,2.93
2023-04-25T04:03:16.790Z,2.63
2023-04-25T04:05:44.628Z,2.83
2023-04-25T04:08:12.172Z,3.17
2023-04-25T04:10:39.710Z,5.40
2023-04-25T04:13:07.198Z,3.60
2023-04-25T04:15:34.844Z,3.00
2023-04-25T04:18:04.055Z,3.20
2023-04-25T04:20:32.020Z,3.00
2023-04-25T04:22:59.702Z,3.40
2023-04-25T04:25:27.399Z,3.30
2023-04-25T04:27:55.980Z,3.33
2023-04-25T04:30:25.541Z,3.50
2023-04-25T04:32:53.718Z,3.53
2023-04-25T04:35:21.285Z,3.90
2023-04-25T04:37:49.133Z,3.90
2023-04-25T04:40:17.492Z,3.73
2023-04-25T04:42:49.425Z,3.90
2023-04-25T04:45:17.403Z,3.83
2023-04-25T04:47:44.971Z,3.70
2023-04-25T04:50:12.561Z,3.83
2023-04-25T04:52:40.326Z,3.70
2023-04-25T04:55:09.236Z,3.87
2023-04-25T04:57:37.257Z,4.17
2023-04-25T05:00:12.233Z,4.10
2023-04-25T05:02:40.711Z,4.00
2023-04-25T05:05:09.320Z,3.97
2023-04-25T05:07:36.914Z,4.30
2023-04-25T05:10:05.244Z,4.13
2023-04-25T05:12:34.027Z,4.10
2023-04-25T05:15:02.015Z,4.03
2023-04-25T05:17:29.582Z,4.13
2023-04-25T05:19:57.165Z,4.50
2023-04-25T05:22:24.762Z,3.80
2023-04-25T05:24:55.203Z,4.33
2023-04-25T05:27:23.631Z,4.37
2023-04-25T05:29:51.229Z,4.30
2023-04-25T05:32:19.098Z,4.00
2023-04-25T05:34:46.965Z,4.27
2023-04-25T05:37:14.647Z,4.47
2023-04-25T05:39:42.201Z,4.20
2023-04-25T05:42:09.775Z,4.13
2023-04-25T05:44:37.314Z,4.50
2023-04-25T05:47:06.145Z,4.13
2023-04-25T05:49:33.849Z,4.20
2023-04-25T05:52:01.449Z,3.63
2023-04-25T05:54:28.975Z,4.20
2023-04-25T05:56:58.993Z,3.60
2023-04-25T05:59:26.472Z,4.10
2023-04-25T06:01:54.064Z,4.07
2023-04-25T06:04:22.140Z,4.40
2023-04-25T06:06:49.961Z,4.10
2023-04-25T06:09:17.470Z,4.00
2023-04-25T06:11:46.131Z,3.47
2023-04-25T06:14:13.697Z,3.30
2023-04-25T06:16:41.258Z,3.80
2023-04-25T06:19:08.832Z,3.20
2023-04-25T06:21:36.365Z,3.60
2023-04-25T06:24:04.208Z,3.50
2023-04-25T06:26:31.712Z,3.00
2023-04-25T06:28:59.292Z,3.20
2023-04-25T06:31:27.066Z,3.13
2023-04-25T06:33:55.899Z,2.70
2023-04-25T06:36:26.254Z,2.70
2023-04-25T06:38:54.068Z,2.70
2023-04-25T06:41:22.107Z,2.80
2023-04-25T06:43:49.625Z,2.50
2023-04-25T06:46:17.279Z,2.73
2023-04-25T06:48:44.990Z,2.80
2023-04-25T06:51:14.359Z,2.90
2023-04-25T06:53:42.265Z,3.30
2023-04-25T06:56:09.794Z,3.37
2023-04-25T06:58:37.370Z,3.83
2023-04-25T07:01:05.251Z,3.50
2023-04-25T07:03:33.025Z,3.30
2023-04-25T07:06:01.197Z,3.00
2023-04-25T07:08:30.277Z,3.50
2023-04-25T07:10:57.926Z,3.27
2023-04-25T07:13:25.670Z,3.30
2023-04-25T07:15:54.098Z,3.20
2023-04-25T07:18:23.005Z,3.77
2023-04-25T07:20:50.487Z,2.90
2023-04-25T07:23:18.055Z,3.30
2023-04-25T07:25:45.635Z,3.30
2023-04-25T07:28:13.475Z,3.10
2023-04-25T07:30:41.085Z,2.90
2023-04-25T07:33:08.662Z,3.00
2023-04-25T07:35:36.653Z,2.90
2023-04-25T07:38:04.769Z,2.70
2023-04-25T07:40:32.489Z,2.97
2023-04-25T07:43:00.065Z,2.63
2023-04-25T07:45:27.766Z,2.47
2023-04-25T07:47:55.466Z,2.20
2023-04-25T07:50:23.356Z,2.63
2023-04-25T07:52:50.971Z,2.40
2023-04-25T07:55:18.607Z,2.53
2023-04-25T07:57:46.245Z,2.27
2023-04-25T08:00:16.120Z,2.30
2023-04-25T08:02:43.782Z,2.13
2023-04-25T08:05:15.490Z,2.60
2023-04-25T08:07:44.164Z,2.70
2023-04-25T08:10:11.811Z,2.10
2023-04-25T08:12:39.337Z,2.47
2023-04-25T08:15:07.866Z,2.83
2023-04-25T08:17:35.448Z,2.07
2023-04-25T08:20:06.618Z,2.17
2023-04-25T08:22:35.118Z,2.30
2023-04-25T08:25:02.654Z,2.70
2023-04-25T08:27:30.221Z,2.30
2023-04-25T08:29:59.098Z,2.50
2023-04-25T08:32:28.505Z,2.40
2023-04-25T08:34:57.996Z,2.40
2023-04-25T08:37:25.566Z,2.57
2023-04-25T08:39:54.535Z,2.30
2023-04-25T08:42:24.390Z,2.33
2023-04-25T08:44:54.737Z,2.63
2023-04-25T08:47:24.876Z,2.57
2023-04-25T08:49:56.114Z,2.57
2023-04-25T08:52:25.936Z,2.93
2023-04-25T08:54:55.730Z,2.93
2023-04-25T08:57:24.012Z,3.30
2023-04-25T08:59:53.354Z,3.50
2023-04-25T09:02:22.194Z,2.80
2023-04-25T09:04:51.136Z,3.10
2023-04-25T09:07:22.416Z,3.53
2023-04-25T09:09:50.049Z,3.27
2023-04-25T09:12:20.677Z,3.10
2023-04-25T09:15:20.543Z,3.53
2023-04-25T09:17:58.434Z,3.57
2023-04-25T09:20:26.528Z,3.50
2023-04-25T09:23:05.279Z,3.57
2023-04-25T09:25:40.617Z,3.30
2023-04-25T09:28:08.596Z,3.20
2023-04-25T09:30:37.932Z,3.53
2023-04-25T09:33:12.813Z,3.20
2023-04-25T09:35:46.715Z,3.00
2023-04-25T09:38:16.190Z,2.93
2023-04-25T09:40:48.614Z,2.87
2023-04-25T09:43:24.615Z,2.90
2023-04-25T09:45:56.756Z,2.70
2023-04-25T09:48:27.916Z,3.20
2023-04-25T09:51:14.972Z,3.40
2023-04-25T09:53:51.205Z,3.20
2023-04-25T09:56:21.385Z,2.70
2023-04-25T09:58:51.292Z,2.80
2023-04-25T10:01:18.823Z,2.67
2023-04-25T10:03:49.529Z,2.70
2023-04-25T10:06:21.563Z,2.47
2023-04-25T10:08:52.554Z,3.10
2023-04-25T10:11:20.365Z,2.60
2023-04-25T10:13:49.215Z,2.73
2023-04-25T10:16:17.653Z,3.20
2023-04-25T10:18:45.204Z,2.40
2023-04-25T10:21:13.256Z,3.00
2023-04-25T10:23:41.880Z,2.70
2023-04-25T10:26:13.978Z,2.27
2023-04-25T10:29:03.332Z,3.30
2023-04-25T10:31:34.451Z,2.20
2023-04-25T10:34:03.113Z,1.60
2023-04-25T10:36:33.915Z,1.80
2023-04-25T10:39:10.405Z,1.73
2023-04-25T10:41:49.375Z,1.80
2023-04-25T10:44:17.076Z,2.00
2023-04-25T10:46:47.213Z,1.80
2023-04-25T10:49:31.661Z,2.20
2023-04-25T10:52:28.944Z,1.80
2023-04-25T10:54:58.674Z,1.60
2023-04-25T10:57:43.471Z,1.40
2023-04-25T11:00:20.804Z,1.50
2023-04-25T11:03:00.828Z,1.60
2023-04-25T11:05:33.155Z,1.40
2023-04-25T11:08:08.285Z,1.70
2023-04-25T11:10:39.263Z,2.30
2023-04-25T11:13:06.847Z,1.97
2023-04-25T11:15:34.519Z,1.90
2023-04-25T11:18:02.342Z,3.97
2023-04-25T11:20:30.099Z,1.40
2023-04-25T11:25:36.710Z,1.50
2023-04-25T11:28:06.236Z,1.30
2023-04-25T11:30:33.859Z,1.77
2023-04-25T11:33:01.511Z,1.67
2023-04-25T11:35:29.293Z,2.17
2023-04-25T11:37:56.945Z,1.67
2023-04-25T11:40:24.794Z,1.40
2023-04-25T11:42:53.826Z,1.50
2023-04-25T11:45:25.189Z,1.30
2023-04-25T11:47:53.776Z,1.40
2023-04-25T11:50:21.554Z,1.50
2023-04-25T11:52:50.059Z,1.37
2023-04-25T11:55:21.206Z,2.40
2023-04-25T11:57:54.512Z,1.17
2023-04-25T12:00:23.817Z,1.20
2023-04-25T12:02:57.371Z,1.30
2023-04-25T12:05:35.105Z,1.20
2023-04-25T12:08:16.809Z,1.13
2023-04-25T12:10:47.558Z,1.50
2023-04-25T12:13:26.560Z,1.77
2023-04-25T12:15:57.558Z,1.60
2023-04-25T12:18:28.961Z,1.50
2023-04-25T12:20:57.383Z,1.90
2023-04-25T12:23:29.647Z,1.27
2023-04-25T12:25:57.535Z,1.40
2023-04-25T12:28:28.913Z,1.50
2023-04-25T12:31:03.413Z,1.50
2023-04-25T12:33:38.609Z,1.40
2023-04-25T12:36:11.537Z,1.57
2023-04-25T12:38:43.863Z,1.50
2023-04-25T12:41:11.807Z,1.30
2023-04-25T12:43:39.451Z,1.47
2023-04-25T12:46:07.101Z,1.40
2023-04-25T12:48:34.744Z,1.30
2023-04-25T12:51:02.318Z,1.20
2023-04-25T12:53:30.497Z,1.50
2023-04-25T12:55:58.725Z,1.73
2023-04-25T12:58:26.982Z,1.60
2023-04-25T13:00:54.796Z,1.30
2023-04-25T13:03:23.240Z,1.50
2023-04-25T13:05:51.605Z,1.40
2023-04-25T13:08:19.477Z,1.47
2023-04-25T13:10:47.051Z,1.60
2023-04-25T13:13:14.696Z,1.50
2023-04-25T13:15:43.423Z,1.50
2023-04-25T13:18:11.123Z,1.40
2023-04-25T13:20:38.760Z,1.30
2023-04-25T13:23:06.235Z,2.33
2023-04-25T13:25:34.284Z,1.43
2023-04-25T13:28:03.713Z,1.90
2023-04-25T13:30:31.371Z,1.60
2023-04-25T13:33:04.316Z,2.20
2023-04-25T13:35:32.486Z,1.53
2023-04-25T13:38:00.509Z,1.57
2023-04-25T13:40:28.693Z,1.60
2023-04-25T13:42:57.488Z,1.60
2023-04-25T13:45:25.306Z,2.00
2023-04-25T13:47:52.920Z,1.67
2023-04-25T13:50:21.577Z,1.80
2023-04-25T13:52:49.225Z,1.73
2023-04-25T13:55:16.969Z,2.10
2023-04-25T13:57:44.940Z,1.80
2023-04-25T14:00:13.412Z,1.40
2023-04-25T14:02:41.213Z,1.57
2023-04-25T14:05:10.642Z,1.80
2023-04-25T14:07:38.642Z,1.83
2023-04-25T14:10:08.040Z,1.70
2023-04-25T14:12:35.643Z,1.80
2023-04-25T14:15:03.479Z,1.80
2023-04-25T14:17:31.245Z,2.40
2023-04-25T14:19:58.882Z,4.00
2023-04-25T14:22:27.052Z,1.43
2023-04-25T14:24:54.586Z,1.53
2023-04-25T14:27:23.152Z,7.73
2023-04-25T14:29:50.659Z,6.87
2023-04-25T14:32:18.586Z,2.30
2023-04-25T14:34:46.458Z,1.90
2023-04-25T14:37:14.001Z,2.90
2023-04-25T14:39:41.626Z,1.63
2023-04-25T14:42:09.157Z,1.90
2023-04-25T14:44:36.753Z,1.70
2023-04-25T14:47:04.721Z,2.30
2023-04-25T14:49:34.375Z,1.93
2023-04-25T14:52:02.417Z,2.20
2023-04-25T14:54:29.992Z,1.97
2023-04-25T14:56:58.817Z,1.97
2023-04-25T14:59:26.672Z,2.30
2023-04-25T15:01:54.329Z,2.07
2023-04-25T15:04:22.359Z,2.50
2023-04-25T15:06:50.039Z,2.07
2023-04-25T15:09:19.238Z,1.67
2023-04-25T15:11:47.126Z,1.40
2023-04-25T15:14:14.599Z,1.70
2023-04-25T15:16:42.336Z,2.17
2023-04-25T15:19:10.208Z,1.80
2023-04-25T15:21:37.968Z,2.10
2023-04-25T15:24:06.052Z,2.00
2023-04-25T15:26:33.918Z,1.87
2023-04-25T15:29:01.569Z,1.90
2023-04-25T15:31:29.186Z,1.93
2023-04-25T15:33:56.781Z,2.10
2023-04-25T15:36:24.368Z,2.10
2023-04-25T15:38:51.996Z,2.50
2023-04-25T15:41:19.814Z,2.83
2023-04-25T15:43:49.938Z,2.83
2023-04-25T15:46:17.890Z,3.73
2023-04-25T15:48:46.300Z,5.27
2023-04-25T15:51:13.857Z,3.40
2023-04-25T15:53:41.898Z,3.80
2023-04-25T15:56:09.554Z,3.60
2023-04-25T15:58:37.110Z,7.30
2023-04-25T16:01:05.239Z,2.23
2023-04-25T16:03:35.584Z,4.27
2023-04-25T16:06:04.824Z,3.43
2023-04-25T16:08:36.089Z,2.40
2023-04-25T16:11:04.076Z,3.50
2023-04-25T16:13:33.872Z,4.97
2023-04-25T16:16:02.527Z,2.83
2023-04-25T16:18:30.314Z,3.80
2023-04-25T16:20:58.142Z,7.10
2023-04-25T16:23:26.788Z,4.33
2023-04-25T16:25:55.316Z,3.40
2023-04-25T16:28:22.909Z,2.67
2023-04-25T16:30:50.767Z,2.00
2023-04-25T16:33:18.460Z,2.10
2023-04-25T16:35:46.481Z,2.63
2023-04-25T16:38:14.131Z,2.30
2023-04-25T16:40:42.030Z,2.70
2023-04-25T16:43:12.883Z,2.23
2023-04-25T16:45:40.627Z,2.90
2023-04-25T16:48:08.389Z,2.33
2023-04-25T16:50:36.177Z,3.30
2023-04-25T16:53:03.698Z,2.70
2023-04-25T16:55:31.797Z,2.20
2023-04-25T16:57:59.525Z,3.10
2023-04-25T17:00:27.092Z,1.97
2023-04-25T17:02:54.742Z,1.80
2023-04-25T17:05:22.688Z,1.70
2023-04-25T17:07:50.402Z,1.80
2023-04-25T17:10:18.185Z,2.20
2023-04-25T17:12:47.724Z,2.37
2023-04-25T17:15:15.723Z,2.57
2023-04-25T17:17:43.421Z,2.47
2023-04-25T17:20:11.669Z,2.60
2023-04-25T17:22:39.510Z,2.77
2023-04-25T17:25:09.543Z,2.80
2023-04-25T17:27:37.189Z,3.20
2023-04-25T17:30:07.425Z,3.00
2023-04-25T17:32:35.312Z,2.67
2023-04-25T17:35:03.969Z,2.90
2023-04-25T17:37:31.936Z,3.00
2023-04-25T17:39:59.451Z,2.97
2023-04-25T17:42:27.159Z,3.20
2023-04-25T17:44:55.775Z,2.77
2023-04-25T17:47:24.210Z,3.60
2023-04-25T17:49:51.879Z,3.30
2023-04-25T17:52:20.012Z,2.90
2023-04-25T17:54:49.599Z,3.03
2023-04-25T17:57:17.878Z,3.10
2023-04-25T17:59:45.481Z,3.10
2023-04-25T18:02:13.211Z,3.40
2023-04-25T18:04:40.800Z,3.23
2023-04-25T18:07:08.731Z,2.80
2023-04-25T18:09:36.296Z,3.07
2023-04-25T18:12:04.143Z,2.80
2023-04-25T18:14:33.302Z,3.03
2023-04-25T18:17:00.856Z,3.17
2023-04-25T18:19:28.565Z,3.20
2023-04-25T18:21:56.867Z,3.30
2023-04-25T18:24:27.512Z,3.60
2023-04-25T18:26:56.166Z,3.80
2023-04-25T18:29:33.009Z,3.47
2023-04-25T18:32:01.377Z,4.10
2023-04-25T18:34:29.074Z,4.07
2023-04-25T18:36:57.170Z,4.60
2023-04-25T18:39:25.992Z,4.67
2023-04-25T18:42:01.296Z,4.67
2023-04-25T18:44:33.974Z,4.43
2023-04-25T18:47:02.027Z,4.40
2023-04-25T18:49:29.666Z,5.13
2023-04-25T18:51:58.224Z,4.50
2023-04-25T18:54:25.817Z,4.77
2023-04-25T18:56:55.830Z,4.03
2023-04-25T18:59:23.578Z,4.13
2023-04-25T19:01:52.488Z,4.77
2023-04-25T19:04:20.438Z,4.63
2023-04-25T19:06:50.233Z,4.90
2023-04-25T19:09:18.525Z,4.10
2023-04-25T19:11:46.801Z,4.07
2023-04-25T19:14:15.395Z,3.90
2023-04-25T19:16:43.112Z,4.43
2023-04-25T19:19:11.631Z,4.17
2023-04-25T19:21:41.937Z,4.00
2023-04-25T19:24:09.809Z,4.20
2023-04-25T19:26:38.382Z,3.97
2023-04-25T19:29:14.758Z,4.00
2023-04-25T19:31:45.404Z,3.70
2023-04-25T19:34:14.220Z,3.73
2023-04-25T19:36:42.853Z,3.43
2023-04-25T19:39:11.186Z,3.67
2023-04-25T19:41:39.787Z,3.80
2023-04-25T19:44:09.656Z,4.10
2023-04-25T19:46:38.001Z,3.57
2023-04-25T19:49:08.006Z,3.83
2023-04-25T19:51:36.753Z,3.50
2023-04-25T19:54:04.645Z,3.67
2023-04-25T19:56:32.753Z,3.57
2023-04-25T19:59:00.584Z,3.93
2023-04-25T20:01:28.709Z,3.97
2023-04-25T20:03:56.606Z,3.40
2023-04-25T20:06:24.444Z,3.20
2023-04-25T20:08:55.800Z,3.47
2023-04-25T20:11:23.412Z,3.67
2023-04-25T20:13:51.189Z,3.10
2023-04-25T20:16:21.286Z,3.00
2023-04-25T20:18:49.365Z,3.50
2023-04-25T20:21:17.759Z,3.40
2023-04-25T20:23:46.103Z,2.90
2023-04-25T20:26:13.759Z,3.13
2023-04-25T20:28:44.855Z,3.10
2023-04-25T20:31:12.728Z,3.20
2023-04-25T20:33:43.882Z,3.13
2023-04-25T20:36:11.503Z,3.30
2023-04-25T20:38:39.383Z,3.03
2023-04-25T20:41:07.138Z,3.17
2023-04-25T20:43:34.801Z,3.30
2023-04-25T20:46:02.736Z,2.87
2023-04-25T20:48:30.352Z,3.37
2023-04-25T20:51:00.749Z,3.47
2023-04-25T20:53:28.581Z,3.53
2023-04-25T20:55:56.226Z,3.33
2023-04-25T20:58:23.788Z,3.53
2023-04-25T21:00:51.580Z,3.27
2023-04-25T21:03:19.510Z,3.57
2023-04-25T21:05:47.241Z,3.90
2023-04-25T21:08:14.889Z,3.60
2023-04-25T21:10:42.486Z,3.37
2023-04-25T21:13:10.166Z,3.53
2023-04-25T21:15:37.885Z,2.97
2023-04-25T21:18:05.562Z,3.50
2023-04-25T21:20:33.347Z,3.50
2023-04-25T21:23:01.361Z,3.53
2023-04-25T21:25:32.051Z,2.80
2023-04-25T21:28:00.411Z,3.43
2023-04-25T21:30:28.295Z,3.43
2023-04-25T21:32:56.524Z,2.90
2023-04-25T21:35:24.320Z,3.33
2023-04-25T21:37:52.524Z,3.13
2023-04-25T21:40:20.216Z,2.50
2023-04-25T21:42:53.610Z,2.57
2023-04-25T21:45:21.950Z,2.80
2023-04-25T21:47:50.977Z,2.73
2023-04-25T21:50:19.714Z,2.80
2023-04-25T21:52:49.056Z,2.77
2023-04-25T21:55:17.524Z,2.40
2023-04-25T21:57:45.093Z,3.10
2023-04-25T22:00:33.517Z,2.67
2023-04-25T22:03:01.433Z,2.70
2023-04-25T22:05:29.624Z,2.60
2023-04-25T22:07:57.317Z,2.80
2023-04-25T22:10:25.396Z,2.53
2023-04-25T22:12:53.244Z,2.67
2023-04-25T22:15:23.987Z,2.87
2023-04-25T22:17:55.478Z,2.80
2023-04-25T22:20:26.646Z,3.03
2023-04-25T22:22:56.000Z,2.80
2023-04-25T22:25:24.056Z,2.63
2023-04-25T22:27:51.637Z,2.50
2023-04-25T22:30:19.919Z,2.57
2023-04-25T22:32:47.699Z,2.77
2023-04-25T22:35:15.380Z,2.60
2023-04-25T22:37:43.000Z,2.70
2023-04-25T22:40:11.318Z,2.90
2023-04-25T22:42:44.379Z,2.80
2023-04-25T22:45:12.474Z,3.23
2023-04-25T22:47:40.886Z,3.07
2023-04-25T22:50:13.749Z,3.20
2023-04-25T22:52:42.769Z,3.50
2023-04-25T22:55:12.462Z,3.27
2023-04-25T22:57:40.893Z,3.03
2023-04-25T23:00:16.798Z,3.47
2023-04-25T23:02:46.688Z,3.57
2023-04-25T23:05:15.537Z,3.77
2023-04-25T23:07:44.989Z,3.50
2023-04-25T23:10:16.285Z,3.70
2023-04-25T23:12:44.132Z,3.80
2023-04-25T23:15:13.689Z,3.40
2023-04-25T23:17:42.387Z,3.53
2023-04-25T23:20:11.495Z,4.07
2023-04-25T23:22:39.214Z,3.63
2023-04-25T23:25:08.134Z,3.63
2023-04-25T23:27:35.965Z,4.00
2023-04-25T23:30:03.893Z,3.70
2023-04-25T23:32:32.099Z,3.80
2023-04-25T23:34:59.726Z,3.57
2023-04-25T23:37:27.273Z,3.90
2023-04-25T23:39:54.754Z,3.60
2023-04-25T23:42:22.352Z,3.60
2023-04-25T23:44:49.872Z,3.40
2023-04-25T23:47:19.197Z,4.00
2023-04-25T23:49:46.774Z,3.57
2023-04-25T23:52:14.350Z,3.90
2023-04-25T23:54:42.539Z,3.60
2023-04-25T23:57:12.273Z,4.10
2023-04-25T23:59:39.850Z,3.73
